createdAt,value
2022-10-04T00:02:17.743Z,98718.41
2022-10-04T00:05:23.001Z,98719.31
2022-10-04T00:08:59.243Z,98726.59
2022-10-04T00:12:03.342Z,98738.22
2022-10-04T00:15:16.691Z,98735.37
2022-10-04T00:18:32.702Z,98703.50
2022-10-04T00:21:53.488Z,98724.66
2022-10-04T00:25:09.993Z,98732.84
2022-10-04T00:28:21.975Z,98730.34
2022-10-04T00:31:29.315Z,98725.06
2022-10-04T00:34:31.909Z,98707.34
2022-10-04T00:37:58.114Z,98717.03
2022-10-04T00:41:04.647Z,98717.00
2022-10-04T00:44:12.612Z,98713.44
2022-10-04T00:47:18.241Z,98715.34
2022-10-04T00:50:34.307Z,98718.19
2022-10-04T00:53:57.285Z,98675.91
2022-10-04T00:57:05.282Z,98718.97
2022-10-04T01:00:12.680Z,98711.09
2022-10-04T01:03:20.876Z,98701.72
2022-10-04T01:06:23.988Z,98718.44
2022-10-04T01:09:27.871Z,98710.72
2022-10-04T01:12:36.365Z,98711.59
2022-10-04T01:15:49.303Z,98714.16
2022-10-04T01:18:52.159Z,98708.03
2022-10-04T01:22:05.191Z,98686.91
2022-10-04T01:25:08.587Z,98722.38
2022-10-04T01:28:11.653Z,98717.03
2022-10-04T01:31:15.681Z,98720.78
2022-10-04T01:34:20.538Z,98717.22
2022-10-04T01:37:23.109Z,98709.25
2022-10-04T01:40:26.254Z,98719.16
2022-10-04T01:43:35.566Z,98709.28
2022-10-04T01:46:40.377Z,98711.16
2022-10-04T01:49:44.216Z,98704.69
2022-10-04T01:53:16.224Z,98708.16
2022-10-04T01:56:25.914Z,98714.44
2022-10-04T01:59:33.943Z,98711.75
2022-10-04T02:02:42.003Z,98694.25
2022-10-04T02:05:51.451Z,98706.47
2022-10-04T02:08:57.434Z,98713.59
2022-10-04T02:12:01.197Z,98699.25
2022-10-04T02:15:07.752Z,98700.09
2022-10-04T02:18:15.895Z,98696.59
2022-10-04T02:21:19.131Z,98698.41
2022-10-04T02:24:22.156Z,98697.37
2022-10-04T02:27:32.143Z,98695.66
2022-10-04T02:30:39.231Z,98695.72
2022-10-04T02:33:42.752Z,98694.69
2022-10-04T02:36:46.486Z,98685.91
2022-10-04T02:39:54.900Z,98681.47
2022-10-04T02:43:03.771Z,98690.53
2022-10-04T02:46:14.088Z,98699.72
2022-10-04T02:49:27.931Z,98695.25
2022-10-04T02:52:36.994Z,98697.00
2022-10-04T02:55:42.665Z,98702.56
2022-10-04T02:58:45.509Z,98702.41
2022-10-04T03:01:52.853Z,98695.25
2022-10-04T03:04:59.030Z,98693.66
2022-10-04T03:08:01.843Z,98700.75
2022-10-04T03:11:04.979Z,98693.69
2022-10-04T03:14:15.848Z,98695.59
2022-10-04T03:17:18.472Z,98700.97
2022-10-04T03:20:21.491Z,98708.19
2022-10-04T03:23:24.019Z,98704.63
2022-10-04T03:26:34.198Z,98698.50
2022-10-04T03:29:40.158Z,98693.13
2022-10-04T03:32:43.544Z,98695.88
2022-10-04T03:35:48.067Z,98675.66
2022-10-04T03:38:53.864Z,98688.03
2022-10-04T03:41:58.073Z,98700.81
2022-10-04T03:45:03.478Z,98698.31
2022-10-04T03:48:08.483Z,98705.63
2022-10-04T03:51:15.819Z,98704.16
2022-10-04T03:54:23.042Z,98716.62
2022-10-04T03:57:26.021Z,98711.31
2022-10-04T04:00:29.033Z,98701.59
2022-10-04T04:03:42.027Z,98699.72
2022-10-04T04:06:54.120Z,98706.09
2022-10-04T04:10:05.593Z,98700.72
2022-10-04T04:13:11.726Z,98705.19
2022-10-04T04:16:14.920Z,98710.63
2022-10-04T04:19:19.277Z,98724.09
2022-10-04T04:22:22.277Z,98718.00
2022-10-04T04:25:26.086Z,98723.53
2022-10-04T04:28:49.191Z,98722.41
2022-10-04T04:31:51.659Z,98716.28
2022-10-04T04:35:00.626Z,98716.34
2022-10-04T04:38:16.168Z,98707.50
2022-10-04T04:41:21.229Z,98716.34
2022-10-04T04:44:23.775Z,98710.16
2022-10-04T04:47:32.402Z,98711.09
2022-10-04T04:50:37.155Z,98722.66
2022-10-04T04:53:43.007Z,98705.63
2022-10-04T04:56:48.769Z,98691.66
2022-10-04T04:59:58.222Z,98695.13
2022-10-04T05:03:02.306Z,98719.22
2022-10-04T05:06:07.367Z,98728.66
2022-10-04T05:09:26.123Z,98725.16
2022-10-04T05:12:29.056Z,98717.12
2022-10-04T05:15:34.929Z,98718.59
2022-10-04T05:18:37.731Z,98739.44
2022-10-04T05:21:47.723Z,98733.28
2022-10-04T05:25:13.426Z,98731.66
2022-10-04T05:28:17.723Z,98747.91
2022-10-04T05:31:29.079Z,98753.94
2022-10-04T05:34:38.520Z,98755.53
2022-10-04T05:38:05.052Z,98749.88
2022-10-04T05:41:09.918Z,98762.06
2022-10-04T05:44:46.331Z,98774.47
2022-10-04T05:47:53.958Z,98776.69
2022-10-04T05:50:59.609Z,98778.31
2022-10-04T05:54:03.439Z,98775.78
2022-10-04T05:57:31.268Z,98775.59
2022-10-04T06:00:55.206Z,98782.28
2022-10-04T06:04:16.573Z,98780.13
2022-10-04T06:07:25.701Z,98786.00
2022-10-04T06:10:50.217Z,98782.97
2022-10-04T06:14:00.213Z,98790.88
2022-10-04T06:17:27.545Z,98788.78
2022-10-04T06:20:36.358Z,98801.00
2022-10-04T06:23:48.975Z,98802.53
2022-10-04T06:26:55.742Z,98795.03
2022-10-04T06:30:05.330Z,98810.06
2022-10-04T06:33:49.923Z,98810.84
2022-10-04T06:37:05.775Z,98806.94
2022-10-04T06:40:29.627Z,98820.16
2022-10-04T06:43:48.989Z,98823.53
2022-10-04T06:46:56.271Z,98833.25
2022-10-04T06:50:26.362Z,98838.41
2022-10-04T06:53:47.279Z,98836.94
2022-10-04T06:57:14.739Z,98839.62
2022-10-04T07:00:27.449Z,98826.28
2022-10-04T07:03:51.253Z,98828.09
2022-10-04T07:07:25.127Z,98827.00
2022-10-04T07:10:31.098Z,98837.53
2022-10-04T07:13:42.633Z,98835.59
2022-10-04T07:16:56.526Z,98839.59
2022-10-04T07:20:00.740Z,98836.53
2022-10-04T07:23:07.925Z,98832.12
2022-10-04T07:26:23.827Z,98831.84
2022-10-04T07:29:32.448Z,98833.09
2022-10-04T07:32:36.881Z,98823.34
2022-10-04T07:35:45.190Z,98827.56
2022-10-04T07:38:52.045Z,98847.12
2022-10-04T07:42:06.334Z,98850.78
2022-10-04T07:45:15.290Z,98852.56
2022-10-04T07:48:23.200Z,98849.69
2022-10-04T07:51:31.947Z,98838.88
2022-10-04T07:54:40.617Z,98838.22
2022-10-04T07:58:01.867Z,98839.00
2022-10-04T08:01:29.080Z,98848.63
2022-10-04T08:04:31.847Z,98852.81
2022-10-04T08:07:50.085Z,98863.06
2022-10-04T08:11:25.902Z,98856.94
2022-10-04T08:15:23.982Z,98855.88
2022-10-04T08:18:39.714Z,98856.38
2022-10-04T08:21:59.990Z,98867.50
2022-10-04T08:25:42.753Z,98874.00
2022-10-04T08:29:03.386Z,98875.97
2022-10-04T08:32:09.294Z,98883.41
2022-10-04T08:35:33.455Z,98896.44
2022-10-04T08:38:43.418Z,98903.53
2022-10-04T08:42:11.818Z,98883.00
2022-10-04T08:45:38.255Z,98893.19
2022-10-04T08:49:11.763Z,98895.69
2022-10-04T08:52:48.835Z,98899.09
2022-10-04T08:56:15.638Z,98899.50
2022-10-04T08:59:58.000Z,98897.13
2022-10-04T09:03:58.988Z,98892.88
2022-10-04T09:07:12.525Z,98901.03
2022-10-04T09:10:25.301Z,98905.66
2022-10-04T09:13:33.205Z,98904.28
2022-10-04T09:16:49.402Z,98903.37
2022-10-04T09:20:09.067Z,98926.72
2022-10-04T09:23:31.908Z,98916.41
2022-10-04T09:26:56.070Z,98915.56
2022-10-04T09:30:18.928Z,98924.72
2022-10-04T09:33:40.166Z,98918.16
2022-10-04T09:36:52.565Z,98906.22
2022-10-04T09:40:01.078Z,98927.59
2022-10-04T09:43:12.831Z,98916.16
2022-10-04T09:46:19.069Z,98914.41
2022-10-04T09:49:50.496Z,98918.09
2022-10-04T09:53:02.910Z,98931.53
2022-10-04T09:56:36.930Z,98918.50
2022-10-04T09:59:59.530Z,98904.94
2022-10-04T10:03:25.155Z,98914.41
2022-10-04T10:06:34.054Z,98908.41
2022-10-04T10:10:03.621Z,98923.78
2022-10-04T10:13:43.602Z,98914.62
2022-10-04T10:17:04.758Z,98926.13
2022-10-04T10:20:45.442Z,98923.88
2022-10-04T10:24:06.300Z,98920.97
2022-10-04T10:27:25.239Z,98934.63
2022-10-04T10:31:05.910Z,98925.56
2022-10-04T10:34:21.603Z,98930.19
2022-10-04T10:38:04.599Z,98910.72
2022-10-04T10:41:08.985Z,98923.47
2022-10-04T10:44:23.416Z,98926.47
2022-10-04T10:47:52.882Z,98930.41
2022-10-04T10:51:15.149Z,98918.16
2022-10-04T10:54:30.314Z,98936.34
2022-10-04T10:58:00.931Z,98926.72
2022-10-04T11:01:41.824Z,98937.22
2022-10-04T11:05:14.424Z,98940.69
2022-10-04T11:08:30.024Z,98938.34
2022-10-04T11:12:00.488Z,98947.88
2022-10-04T11:15:40.859Z,98942.03
2022-10-04T11:19:06.229Z,98953.44
2022-10-04T11:22:45.342Z,98944.50
2022-10-04T11:25:50.727Z,98951.66
2022-10-04T11:29:31.859Z,98953.19
2022-10-04T11:33:12.176Z,98932.34
2022-10-04T11:36:34.167Z,98938.47
2022-10-04T11:40:01.381Z,98941.41
2022-10-04T11:43:44.816Z,98947.88
2022-10-04T11:47:02.946Z,98944.47
2022-10-04T11:50:39.128Z,98939.94
2022-10-04T11:54:04.152Z,98930.91
2022-10-04T11:57:25.651Z,98938.97
2022-10-04T12:00:49.693Z,98936.44
2022-10-04T12:04:23.364Z,98931.97
2022-10-04T12:07:52.134Z,98941.72
2022-10-04T12:12:07.952Z,98941.94
2022-10-04T12:15:20.358Z,98923.91
2022-10-04T12:18:44.347Z,98944.59
2022-10-04T12:21:50.744Z,98949.63
2022-10-04T12:25:26.947Z,98949.53
2022-10-04T12:28:56.846Z,98957.00
2022-10-04T12:32:15.039Z,98950.38
2022-10-04T12:35:34.922Z,98947.72
2022-10-04T12:39:02.864Z,98932.38
2022-10-04T12:42:36.941Z,98943.19
2022-10-04T12:45:45.751Z,98942.31
2022-10-04T12:49:04.145Z,98947.59
2022-10-04T12:52:20.265Z,98951.63
2022-10-04T12:55:41.548Z,98951.25
2022-10-04T12:59:05.645Z,98956.84
2022-10-04T13:02:45.318Z,98953.12
2022-10-04T13:05:54.273Z,98952.53
2022-10-04T13:09:11.910Z,98952.44
2022-10-04T13:12:24.779Z,98953.88
2022-10-04T13:17:23.298Z,98948.63
2022-10-04T13:19:10.786Z,98960.78
2022-10-04T13:22:55.346Z,98958.56
2022-10-04T13:26:32.290Z,98954.84
2022-10-04T13:29:47.411Z,98951.56
2022-10-04T13:32:58.043Z,98953.53
2022-10-04T13:36:08.212Z,98951.53
2022-10-04T13:39:35.322Z,98962.03
2022-10-04T13:42:58.892Z,98962.13
2022-10-04T13:46:14.982Z,98968.88
2022-10-04T13:49:45.324Z,98963.53
2022-10-04T13:53:10.201Z,98975.53
2022-10-04T13:56:37.539Z,98975.56
2022-10-04T13:59:45.618Z,98967.62
2022-10-04T14:02:53.802Z,98976.72
2022-10-04T14:06:02.631Z,98979.41
2022-10-04T14:09:15.961Z,98973.88
2022-10-04T14:12:41.677Z,98979.37
2022-10-04T14:16:06.357Z,98984.16
2022-10-04T14:19:09.081Z,98979.22
2022-10-04T14:22:23.859Z,98985.69
2022-10-04T14:26:02.500Z,98997.91
2022-10-04T14:29:45.207Z,99002.28
2022-10-04T14:33:20.348Z,99000.97
2022-10-04T14:36:57.988Z,98988.31
2022-10-04T14:40:20.678Z,98990.56
2022-10-04T14:43:35.364Z,98989.66
2022-10-04T14:46:44.535Z,99002.28
2022-10-04T14:50:41.270Z,99006.34
2022-10-04T14:53:56.209Z,99010.84
2022-10-04T14:57:11.139Z,99017.19
2022-10-04T15:00:23.696Z,99016.19
2022-10-04T15:03:39.048Z,99012.63
2022-10-04T15:06:49.574Z,99023.00
2022-10-04T15:09:56.215Z,98814.88
2022-10-04T15:13:17.652Z,99022.50
2022-10-04T15:16:34.134Z,99035.16
2022-10-04T15:20:04.311Z,99022.88
2022-10-04T15:23:13.466Z,98827.94
2022-10-04T15:26:19.346Z,99024.50
2022-10-04T15:30:01.155Z,99031.84
2022-10-04T15:33:30.014Z,99041.91
2022-10-04T15:37:01.921Z,99040.31
2022-10-04T15:40:23.996Z,99037.25
2022-10-04T15:43:44.760Z,99045.69
2022-10-04T15:47:11.124Z,99047.75
2022-10-04T15:50:25.850Z,99052.62
2022-10-04T15:53:44.799Z,99063.19
2022-10-04T15:56:56.331Z,99060.00
2022-10-04T16:00:08.872Z,99066.88
2022-10-04T16:03:39.506Z,99063.47
2022-10-04T16:06:51.048Z,99066.59
2022-10-04T16:10:15.649Z,99065.59
2022-10-04T16:13:39.498Z,99072.53
2022-10-04T16:16:59.935Z,99081.56
2022-10-04T16:20:34.473Z,99082.09
2022-10-04T16:23:42.955Z,99082.75
2022-10-04T16:26:51.326Z,99078.37
2022-10-04T16:30:25.994Z,99089.38
2022-10-04T16:33:37.731Z,99097.28
2022-10-04T16:37:25.265Z,99094.06
2022-10-04T16:40:30.662Z,99054.41
2022-10-04T16:43:34.469Z,99097.19
2022-10-04T16:46:38.955Z,99105.31
2022-10-04T16:49:51.212Z,99104.59
2022-10-04T16:53:21.610Z,99092.84
2022-10-04T16:56:27.075Z,99107.16
2022-10-04T16:59:38.976Z,99100.06
2022-10-04T17:02:57.590Z,99121.44
2022-10-04T17:06:15.629Z,99125.13
2022-10-04T17:09:48.989Z,99130.00
2022-10-04T17:13:07.851Z,99125.97
2022-10-04T17:16:16.207Z,99142.41
2022-10-04T17:19:51.707Z,99136.53
2022-10-04T17:23:04.663Z,99146.78
2022-10-04T17:26:41.997Z,99148.03
2022-10-04T17:29:58.497Z,99154.91
2022-10-04T17:33:14.645Z,99160.78
2022-10-04T17:36:39.594Z,99154.81
2022-10-04T17:39:44.895Z,99156.94
2022-10-04T17:43:05.247Z,99161.78
2022-10-04T17:46:13.886Z,99163.78
2022-10-04T17:50:00.410Z,99160.53
2022-10-04T17:53:31.068Z,99163.22
2022-10-04T17:56:44.108Z,99153.56
2022-10-04T17:59:50.140Z,99167.72
2022-10-04T18:03:12.963Z,99169.63
2022-10-04T18:06:27.477Z,99166.94
2022-10-04T18:09:43.523Z,99173.16
2022-10-04T18:12:56.202Z,99183.03
2022-10-04T18:16:40.202Z,99178.50
2022-10-04T18:19:51.832Z,99182.00
2022-10-04T18:23:15.271Z,99187.47
2022-10-04T18:26:18.494Z,99185.81
2022-10-04T18:29:37.889Z,99193.97
2022-10-04T18:32:57.330Z,99188.69
2022-10-04T18:36:06.497Z,99184.84
2022-10-04T18:39:12.230Z,99208.87
2022-10-04T18:42:20.318Z,99206.34
2022-10-04T18:45:31.283Z,99207.19
2022-10-04T18:49:09.071Z,99203.81
2022-10-04T18:52:17.129Z,99216.31
2022-10-04T18:55:45.039Z,99217.19
2022-10-04T18:59:13.566Z,99226.19
2022-10-04T19:02:21.937Z,99230.63
2022-10-04T19:05:53.460Z,99227.97
2022-10-04T19:09:26.067Z,99234.38
2022-10-04T19:12:35.600Z,99236.22
2022-10-04T19:15:53.178Z,99228.34
2022-10-04T19:19:15.302Z,99236.44
2022-10-04T19:22:26.728Z,99240.13
2022-10-04T19:26:09.839Z,99243.78
2022-10-04T19:29:46.511Z,99248.31
2022-10-04T19:33:24.754Z,99259.97
2022-10-04T19:36:57.748Z,99256.50
2022-10-04T19:40:30.190Z,99261.03
2022-10-04T19:43:51.248Z,99261.13
2022-10-04T19:47:04.538Z,99265.56
2022-10-04T19:50:18.495Z,99270.25
2022-10-04T19:53:28.564Z,99268.56
2022-10-04T19:56:35.844Z,99267.66
2022-10-04T19:59:42.875Z,99274.12
2022-10-04T20:02:48.659Z,99274.03
2022-10-04T20:05:54.711Z,99279.34
2022-10-04T20:09:02.678Z,99283.13
2022-10-04T20:12:06.243Z,99279.03
2022-10-04T20:15:43.566Z,99288.72
2022-10-04T20:18:58.927Z,99295.34
2022-10-04T20:22:07.479Z,99289.25
2022-10-04T20:25:10.599Z,99301.13
2022-10-04T20:28:42.976Z,99218.19
2022-10-04T20:31:53.310Z,99299.91
2022-10-04T20:34:57.511Z,99309.19
2022-10-04T20:38:27.326Z,99310.22
2022-10-04T20:41:29.508Z,99314.87
2022-10-04T20:44:51.208Z,99316.94
2022-10-04T20:47:57.605Z,99323.41
2022-10-04T20:51:09.626Z,99318.88
2022-10-04T20:54:17.712Z,99312.72
2022-10-04T20:57:24.436Z,99307.34
2022-10-04T21:00:33.704Z,99330.37
2022-10-04T21:03:37.150Z,99320.75
2022-10-04T21:07:00.058Z,99333.94
2022-10-04T21:10:15.201Z,99333.88
2022-10-04T21:13:42.458Z,99323.13
2022-10-04T21:16:57.536Z,99321.22
2022-10-04T21:20:05.923Z,99331.06
2022-10-04T21:23:17.315Z,99331.06
2022-10-04T21:26:26.081Z,99331.19
2022-10-04T21:29:28.973Z,99327.66
2022-10-04T21:32:36.323Z,99334.03
2022-10-04T21:35:39.682Z,99354.00
2022-10-04T21:38:42.533Z,99329.94
2022-10-04T21:41:45.900Z,99335.41
2022-10-04T21:44:48.733Z,99333.56
2022-10-04T21:47:51.635Z,99285.13
2022-10-04T21:50:54.919Z,99345.50
2022-10-04T21:53:57.703Z,99349.25
2022-10-04T21:57:00.285Z,99345.09
2022-10-04T22:00:05.276Z,99353.56
2022-10-04T22:03:14.590Z,99358.19
2022-10-04T22:06:17.691Z,99350.31
2022-10-04T22:09:20.214Z,99353.28
2022-10-04T22:12:22.927Z,99357.06
2022-10-04T22:15:27.521Z,99362.59
2022-10-04T22:18:33.578Z,99367.03
2022-10-04T22:21:36.145Z,99365.28
2022-10-04T22:24:39.070Z,99367.94
2022-10-04T22:27:42.085Z,99374.25
2022-10-04T22:30:49.602Z,99366.38
2022-10-04T22:33:52.513Z,99373.50
2022-10-04T22:36:55.401Z,99371.00
2022-10-04T22:39:58.071Z,99379.97
2022-10-04T22:43:00.987Z,99373.84
2022-10-04T22:46:03.646Z,99316.41
2022-10-04T22:49:15.633Z,99372.25
2022-10-04T22:52:23.039Z,99379.44
2022-10-04T22:55:26.033Z,99375.72
2022-10-04T22:58:28.677Z,99373.97
2022-10-04T23:01:31.812Z,99378.50
2022-10-04T23:04:34.575Z,99386.66
2022-10-04T23:07:38.521Z,99381.50
2022-10-04T23:10:41.395Z,99382.28
2022-10-04T23:13:44.314Z,99389.22
2022-10-04T23:16:47.232Z,99388.38
2022-10-04T23:19:56.795Z,99383.97
2022-10-04T23:22:59.684Z,99403.69
2022-10-04T23:26:02.619Z,99409.19
2022-10-04T23:29:26.486Z,99404.09
2022-10-04T23:32:31.391Z,99413.91
2022-10-04T23:35:34.221Z,99393.50
2022-10-04T23:38:37.249Z,99422.81
2022-10-04T23:41:39.916Z,99411.28
2022-10-04T23:44:42.930Z,99415.78
2022-10-04T23:47:46.373Z,99409.69
2022-10-04T23:50:49.540Z,99416.84
2022-10-04T23:53:52.258Z,99422.22
2022-10-04T23:56:55.171Z,99422.53
2022-10-04T23:59:59.977Z,99414.59
